sensor_id;sensor_type;location;lat;lon;timestamp;P1;durP1;ratioP1;P2;durP2;ratioP2
10450;SDS011;5273;51.290;6.918;2024-03-23T00:53:44;17.50;;;4.43;;
10450;SDS011;5273;51.290;6.918;2024-03-23T00:56:10;9.37;;;3.30;;
10450;SDS011;5273;51.290;6.918;2024-03-23T00:58:37;12.47;;;3.70;;
10450;SDS011;5273;51.290;6.918;2024-03-23T01:01:03;10.20;;;3.57;;
10450;SDS011;5273;51.290;6.918;2024-03-23T01:03:31;12.63;;;3.47;;
10450;SDS011;5273;51.290;6.918;2024-03-23T01:05:58;13.03;;;3.23;;
10450;SDS011;5273;51.290;6.918;2024-03-23T01:08:25;10.90;;;3.20;;
10450;SDS011;5273;51.290;6.918;2024-03-23T01:10:54;13.10;;;3.07;;
10450;SDS011;5273;51.290;6.918;2024-03-23T01:13:21;11.10;;;3.73;;
10450;SDS011;5273;51.290;6.918;2024-03-23T01:15:48;13.53;;;4.47;;
10450;SDS011;5273;51.290;6.918;2024-03-23T01:18:15;14.83;;;4.17;;
10450;SDS011;5273;51.290;6.918;2024-03-23T01:20:42;17.43;;;4.30;;
10450;SDS011;5273;51.290;6.918;2024-03-23T01:23:09;10.93;;;3.80;;
10450;SDS011;5273;51.290;6.918;2024-03-23T01:25:35;9.97;;;3.50;;
10450;SDS011;5273;51.290;6.918;2024-03-23T01:28:02;8.33;;;3.60;;
10450;SDS011;5273;51.290;6.918;2024-03-23T01:30:28;18.67;;;4.90;;
10450;SDS011;5273;51.290;6.918;2024-03-23T01:33:06;9.87;;;3.37;;
10450;SDS011;5273;51.290;6.918;2024-03-23T01:35:32;10.27;;;3.20;;
10450;SDS011;5273;51.290;6.918;2024-03-23T01:38:00;5.77;;;2.63;;
10450;SDS011;5273;51.290;6.918;2024-03-23T01:40:26;6.60;;;2.20;;
10450;SDS011;5273;51.290;6.918;2024-03-23T01:42:56;8.20;;;2.47;;
10450;SDS011;5273;51.290;6.918;2024-03-23T01:45:22;8.93;;;2.20;;
10450;SDS011;5273;51.290;6.918;2024-03-23T01:47:50;7.80;;;2.90;;
10450;SDS011;5273;51.290;6.918;2024-03-23T01:50:17;7.97;;;2.27;;
10450;SDS011;5273;51.290;6.918;2024-03-23T01:52:44;8.23;;;2.27;;
10450;SDS011;5273;51.290;6.918;2024-03-23T01:55:11;5.33;;;2.10;;
10450;SDS011;5273;51.290;6.918;2024-03-23T01:57:38;7.83;;;2.13;;
10450;SDS011;5273;51.290;6.918;2024-03-23T02:00:04;7.00;;;2.53;;
10450;SDS011;5273;51.290;6.918;2024-03-23T02:02:32;6.20;;;2.87;;
10450;SDS011;5273;51.290;6.918;2024-03-23T02:04:58;9.90;;;2.33;;
10450;SDS011;5273;51.290;6.918;2024-03-23T02:07:24;7.47;;;2.33;;
10450;SDS011;5273;51.290;6.918;2024-03-23T02:09:51;10.37;;;2.23;;
10450;SDS011;5273;51.290;6.918;2024-03-23T02:12:19;8.37;;;2.30;;
10450;SDS011;5273;51.290;6.918;2024-03-23T02:14:46;7.60;;;2.60;;
10450;SDS011;5273;51.290;6.918;2024-03-23T02:17:13;4.87;;;2.87;;
10450;SDS011;5273;51.290;6.918;2024-03-23T02:19:39;7.33;;;2.40;;
10450;SDS011;5273;51.290;6.918;2024-03-23T02:22:05;7.80;;;2.43;;
10450;SDS011;5273;51.290;6.918;2024-03-23T02:24:32;9.73;;;2.77;;
10450;SDS011;5273;51.290;6.918;2024-03-23T02:27:00;7.40;;;2.27;;
10450;SDS011;5273;51.290;6.918;2024-03-23T02:29:27;10.33;;;2.93;;
10450;SDS011;5273;51.290;6.918;2024-03-23T02:31:54;10.20;;;2.63;;
10450;SDS011;5273;51.290;6.918;2024-03-23T02:34:19;9.57;;;2.60;;
10450;SDS011;5273;51.290;6.918;2024-03-23T02:36:46;5.00;;;2.20;;
10450;SDS011;5273;51.290;6.918;2024-03-23T02:39:12;9.27;;;2.90;;
10450;SDS011;5273;51.290;6.918;2024-03-23T02:41:41;7.43;;;2.60;;
10450;SDS011;5273;51.290;6.918;2024-03-23T02:44:07;6.40;;;2.73;;
10450;SDS011;5273;51.290;6.918;2024-03-23T02:46:36;7.23;;;2.87;;
10450;SDS011;5273;51.290;6.918;2024-03-23T02:49:02;9.40;;;2.60;;
10450;SDS011;5273;51.290;6.918;2024-03-23T02:51:29;9.37;;;3.13;;
10450;SDS011;5273;51.290;6.918;2024-03-23T02:53:55;7.80;;;2.37;;
10450;SDS011;5273;51.290;6.918;2024-03-23T02:56:22;7.17;;;2.60;;
10450;SDS011;5273;51.290;6.918;2024-03-23T02:58:49;11.20;;;3.13;;
10450;SDS011;5273;51.290;6.918;2024-03-23T03:01:16;10.60;;;3.00;;
10450;SDS011;5273;51.290;6.918;2024-03-23T03:03:41;6.87;;;2.73;;
10450;SDS011;5273;51.290;6.918;2024-03-23T03:06:09;10.97;;;3.27;;
10450;SDS011;5273;51.290;6.918;2024-03-23T03:08:35;11.13;;;4.17;;
10450;SDS011;5273;51.290;6.918;2024-03-23T03:11:02;8.10;;;3.30;;
10450;SDS011;5273;51.290;6.918;2024-03-23T03:13:28;8.17;;;3.07;;
10450;SDS011;5273;51.290;6.918;2024-03-23T03:15:56;8.37;;;3.40;;
10450;SDS011;5273;51.290;6.918;2024-03-23T03:18:23;10.23;;;3.80;;
10450;SDS011;5273;51.290;6.918;2024-03-23T03:20:53;13.37;;;3.97;;
10450;SDS011;5273;51.290;6.918;2024-03-23T03:23:19;7.47;;;3.37;;
10450;SDS011;5273;51.290;6.918;2024-03-23T03:25:46;9.20;;;3.40;;
10450;SDS011;5273;51.290;6.918;2024-03-23T03:28:12;9.80;;;3.20;;
10450;SDS011;5273;51.290;6.918;2024-03-23T03:30:39;11.70;;;3.43;;
10450;SDS011;5273;51.290;6.918;2024-03-23T03:33:06;6.80;;;3.07;;
10450;SDS011;5273;51.290;6.918;2024-03-23T03:35:33;8.57;;;2.90;;
10450;SDS011;5273;51.290;6.918;2024-03-23T03:37:58;7.63;;;2.87;;
10450;SDS011;5273;51.290;6.918;2024-03-23T03:40:25;6.47;;;1.90;;
10450;SDS011;5273;51.290;6.918;2024-03-23T03:42:51;6.43;;;2.87;;
10450;SDS011;5273;51.290;6.918;2024-03-23T03:45:18;9.70;;;2.90;;
10450;SDS011;5273;51.290;6.918;2024-03-23T03:47:43;11.60;;;2.93;;
10450;SDS011;5273;51.290;6.918;2024-03-23T03:50:12;7.90;;;2.20;;
10450;SDS011;5273;51.290;6.918;2024-03-23T03:52:37;8.57;;;3.17;;
10450;SDS011;5273;51.290;6.918;2024-03-23T03:55:06;9.50;;;2.83;;
10450;SDS011;5273;51.290;6.918;2024-03-23T03:57:37;12.33;;;3.10;;
10450;SDS011;5273;51.290;6.918;2024-03-23T04:00:05;10.23;;;3.20;;
10450;SDS011;5273;51.290;6.918;2024-03-23T04:02:31;10.50;;;3.27;;
10450;SDS011;5273;51.290;6.918;2024-03-23T04:04:58;10.67;;;3.13;;
10450;SDS011;5273;51.290;6.918;2024-03-23T04:07:25;7.13;;;2.93;;
10450;SDS011;5273;51.290;6.918;2024-03-23T04:09:52;14.07;;;3.73;;
10450;SDS011;5273;51.290;6.918;2024-03-23T04:12:18;6.43;;;3.00;;
10450;SDS011;5273;51.290;6.918;2024-03-23T04:14:44;6.30;;;2.77;;
10450;SDS011;5273;51.290;6.918;2024-03-23T04:17:10;6.57;;;2.60;;
10450;SDS011;5273;51.290;6.918;2024-03-23T04:19:37;11.43;;;3.60;;
10450;SDS011;5273;51.290;6.918;2024-03-23T04:22:03;11.07;;;3.40;;
10450;SDS011;5273;51.290;6.918;2024-03-23T04:24:31;11.57;;;3.33;;
10450;SDS011;5273;51.290;6.918;2024-03-23T04:26:57;12.47;;;3.40;;
10450;SDS011;5273;51.290;6.918;2024-03-23T04:29:24;10.90;;;3.13;;
10450;SDS011;5273;51.290;6.918;2024-03-23T04:31:51;15.70;;;3.33;;
10450;SDS011;5273;51.290;6.918;2024-03-23T04:34:18;14.30;;;3.23;;
10450;SDS011;5273;51.290;6.918;2024-03-23T04:36:44;5.37;;;2.50;;
10450;SDS011;5273;51.290;6.918;2024-03-23T04:39:11;14.30;;;3.33;;
10450;SDS011;5273;51.290;6.918;2024-03-23T04:41:39;10.93;;;3.03;;
10450;SDS011;5273;51.290;6.918;2024-03-23T04:44:06;9.57;;;3.77;;
10450;SDS011;5273;51.290;6.918;2024-03-23T04:46:33;9.77;;;2.70;;
10450;SDS011;5273;51.290;6.918;2024-03-23T04:49:00;9.93;;;2.30;;
10450;SDS011;5273;51.290;6.918;2024-03-23T04:51:34;11.50;;;2.77;;
10450;SDS011;5273;51.290;6.918;2024-03-23T04:54:01;6.57;;;2.40;;
10450;SDS011;5273;51.290;6.918;2024-03-23T04:56:29;6.63;;;2.50;;
10450;SDS011;5273;51.290;6.918;2024-03-23T04:58:58;12.77;;;2.90;;
10450;SDS011;5273;51.290;6.918;2024-03-23T05:01:26;8.87;;;2.33;;
10450;SDS011;5273;51.290;6.918;2024-03-23T05:03:53;10.30;;;2.73;;
10450;SDS011;5273;51.290;6.918;2024-03-23T05:06:19;10.17;;;2.47;;
10450;SDS011;5273;51.290;6.918;2024-03-23T05:08:46;8.10;;;2.77;;
10450;SDS011;5273;51.290;6.918;2024-03-23T05:11:11;7.93;;;2.77;;
10450;SDS011;5273;51.290;6.918;2024-03-23T05:13:38;7.87;;;3.20;;
10450;SDS011;5273;51.290;6.918;2024-03-23T05:16:06;10.40;;;3.63;;
10450;SDS011;5273;51.290;6.918;2024-03-23T05:18:33;8.30;;;3.00;;
10450;SDS011;5273;51.290;6.918;2024-03-23T05:20:59;10.97;;;3.30;;
10450;SDS011;5273;51.290;6.918;2024-03-23T05:23:26;10.37;;;3.40;;
10450;SDS011;5273;51.290;6.918;2024-03-23T05:25:53;8.73;;;3.37;;
10450;SDS011;5273;51.290;6.918;2024-03-23T05:28:20;4.40;;;2.80;;
10450;SDS011;5273;51.290;6.918;2024-03-23T05:30:49;10.50;;;3.37;;
10450;SDS011;5273;51.290;6.918;2024-03-23T05:33:19;10.47;;;3.03;;
10450;SDS011;5273;51.290;6.918;2024-03-23T05:35:45;12.23;;;3.90;;
10450;SDS011;5273;51.290;6.918;2024-03-23T05:38:12;8.73;;;3.10;;
10450;SDS011;5273;51.290;6.918;2024-03-23T05:40:38;17.60;;;3.60;;
10450;SDS011;5273;51.290;6.918;2024-03-23T05:43:05;10.97;;;3.00;;
10450;SDS011;5273;51.290;6.918;2024-03-23T05:45:31;11.97;;;3.90;;
10450;SDS011;5273;51.290;6.918;2024-03-23T05:47:58;10.40;;;3.43;;
10450;SDS011;5273;51.290;6.918;2024-03-23T05:50:25;10.73;;;3.63;;
10450;SDS011;5273;51.290;6.918;2024-03-23T05:52:52;12.00;;;3.33;;
10450;SDS011;5273;51.290;6.918;2024-03-23T05:55:17;7.70;;;3.10;;
10450;SDS011;5273;51.290;6.918;2024-03-23T05:57:44;9.13;;;3.87;;
10450;SDS011;5273;51.290;6.918;2024-03-23T06:00:11;12.70;;;3.73;;
10450;SDS011;5273;51.290;6.918;2024-03-23T06:02:42;13.30;;;3.40;;
10450;SDS011;5273;51.290;6.918;2024-03-23T06:05:09;10.37;;;3.50;;
10450;SDS011;5273;51.290;6.918;2024-03-23T06:07:37;12.43;;;3.83;;
10450;SDS011;5273;51.290;6.918;2024-03-23T06:10:04;11.27;;;3.30;;
10450;SDS011;5273;51.290;6.918;2024-03-23T06:12:31;7.63;;;3.43;;
10450;SDS011;5273;51.290;6.918;2024-03-23T06:14:57;11.30;;;3.87;;
10450;SDS011;5273;51.290;6.918;2024-03-23T06:17:24;13.13;;;4.10;;
10450;SDS011;5273;51.290;6.918;2024-03-23T06:19:50;15.40;;;4.37;;
10450;SDS011;5273;51.290;6.918;2024-03-23T06:22:16;14.07;;;3.97;;
10450;SDS011;5273;51.290;6.918;2024-03-23T06:24:44;10.77;;;4.47;;
10450;SDS011;5273;51.290;6.918;2024-03-23T06:27:10;12.27;;;4.47;;
10450;SDS011;5273;51.290;6.918;2024-03-23T06:29:36;14.07;;;5.50;;
10450;SDS011;5273;51.290;6.918;2024-03-23T06:32:03;14.00;;;4.93;;
10450;SDS011;5273;51.290;6.918;2024-03-23T06:34:29;19.47;;;5.13;;
10450;SDS011;5273;51.290;6.918;2024-03-23T06:36:56;17.57;;;5.23;;
10450;SDS011;5273;51.290;6.918;2024-03-23T06:39:21;10.60;;;4.90;;
10450;SDS011;5273;51.290;6.918;2024-03-23T06:41:53;12.17;;;4.47;;
10450;SDS011;5273;51.290;6.918;2024-03-23T06:44:19;13.83;;;5.17;;
10450;SDS011;5273;51.290;6.918;2024-03-23T06:46:46;9.00;;;4.27;;
10450;SDS011;5273;51.290;6.918;2024-03-23T06:49:14;11.07;;;4.30;;
10450;SDS011;5273;51.290;6.918;2024-03-23T06:51:41;11.33;;;5.00;;
10450;SDS011;5273;51.290;6.918;2024-03-23T06:54:07;11.37;;;3.73;;
10450;SDS011;5273;51.290;6.918;2024-03-23T06:56:34;10.43;;;4.27;;
10450;SDS011;5273;51.290;6.918;2024-03-23T06:59:01;7.67;;;3.93;;
10450;SDS011;5273;51.290;6.918;2024-03-23T07:01:28;10.63;;;3.50;;
10450;SDS011;5273;51.290;6.918;2024-03-23T07:03:54;11.38;;;3.80;;
10450;SDS011;5273;51.290;6.918;2024-03-23T07:06:21;9.15;;;3.30;;
10450;SDS011;5273;51.290;6.918;2024-03-23T07:08:46;6.70;;;3.50;;
10450;SDS011;5273;51.290;6.918;2024-03-23T07:11:18;6.88;;;3.03;;
10450;SDS011;5273;51.290;6.918;2024-03-23T07:13:44;8.75;;;3.20;;
10450;SDS011;5273;51.290;6.918;2024-03-23T07:16:12;11.15;;;3.65;;
10450;SDS011;5273;51.290;6.918;2024-03-23T07:18:38;8.45;;;3.83;;
10450;SDS011;5273;51.290;6.918;2024-03-23T07:21:05;10.13;;;4.25;;
10450;SDS011;5273;51.290;6.918;2024-03-23T07:23:32;7.72;;;3.25;;
10450;SDS011;5273;51.290;6.918;2024-03-23T07:25:59;8.68;;;3.47;;
10450;SDS011;5273;51.290;6.918;2024-03-23T07:28:26;9.93;;;3.38;;
10450;SDS011;5273;51.290;6.918;2024-03-23T07:31:03;6.97;;;3.25;;
10450;SDS011;5273;51.290;6.918;2024-03-23T07:33:31;7.35;;;3.45;;
10450;SDS011;5273;51.290;6.918;2024-03-23T07:35:59;8.40;;;3.70;;
10450;SDS011;5273;51.290;6.918;2024-03-23T07:38:26;6.72;;;3.20;;
10450;SDS011;5273;51.290;6.918;2024-03-23T07:41:02;6.53;;;3.30;;
10450;SDS011;5273;51.290;6.918;2024-03-23T07:43:28;9.70;;;3.80;;
10450;SDS011;5273;51.290;6.918;2024-03-23T07:45:55;8.35;;;3.70;;
10450;SDS011;5273;51.290;6.918;2024-03-23T07:48:21;9.23;;;3.53;;
10450;SDS011;5273;51.290;6.918;2024-03-23T07:50:57;8.07;;;3.67;;
10450;SDS011;5273;51.290;6.918;2024-03-23T07:53:23;6.57;;;3.35;;
10450;SDS011;5273;51.290;6.918;2024-03-23T07:55:54;6.47;;;2.92;;
10450;SDS011;5273;51.290;6.918;2024-03-23T07:58:20;6.63;;;3.17;;
10450;SDS011;5273;51.290;6.918;2024-03-23T08:00:47;8.63;;;3.47;;
10450;SDS011;5273;51.290;6.918;2024-03-23T08:03:13;10.30;;;3.22;;
10450;SDS011;5273;51.290;6.918;2024-03-23T08:05:40;6.63;;;3.22;;
10450;SDS011;5273;51.290;6.918;2024-03-23T08:08:08;9.05;;;3.45;;
10450;SDS011;5273;51.290;6.918;2024-03-23T08:10:34;6.60;;;3.50;;
10450;SDS011;5273;51.290;6.918;2024-03-23T08:13:00;8.93;;;3.60;;
10450;SDS011;5273;51.290;6.918;2024-03-23T08:15:27;8.73;;;3.72;;
10450;SDS011;5273;51.290;6.918;2024-03-23T08:17:57;7.07;;;3.20;;
10450;SDS011;5273;51.290;6.918;2024-03-23T08:20:25;8.25;;;3.40;;
10450;SDS011;5273;51.290;6.918;2024-03-23T08:22:50;6.85;;;3.40;;
10450;SDS011;5273;51.290;6.918;2024-03-23T08:25:19;8.48;;;3.00;;
10450;SDS011;5273;51.290;6.918;2024-03-23T08:27:44;6.05;;;2.97;;
10450;SDS011;5273;51.290;6.918;2024-03-23T08:30:11;7.80;;;3.38;;
10450;SDS011;5273;51.290;6.918;2024-03-23T08:32:37;6.95;;;3.20;;
10450;SDS011;5273;51.290;6.918;2024-03-23T08:35:05;6.82;;;3.30;;
10450;SDS011;5273;51.290;6.918;2024-03-23T08:37:32;6.97;;;3.40;;
10450;SDS011;5273;51.290;6.918;2024-03-23T08:39:58;7.95;;;3.08;;
10450;SDS011;5273;51.290;6.918;2024-03-23T08:42:26;11.52;;;3.47;;
10450;SDS011;5273;51.290;6.918;2024-03-23T08:44:52;7.60;;;3.38;;
10450;SDS011;5273;51.290;6.918;2024-03-23T08:47:18;10.38;;;3.20;;
10450;SDS011;5273;51.290;6.918;2024-03-23T08:49:45;6.38;;;3.13;;
10450;SDS011;5273;51.290;6.918;2024-03-23T08:52:11;12.07;;;3.20;;
10450;SDS011;5273;51.290;6.918;2024-03-23T08:54:37;3.42;;;1.30;;
10450;SDS011;5273;51.290;6.918;2024-03-23T08:57:03;2.28;;;1.38;;
10450;SDS011;5273;51.290;6.918;2024-03-23T08:59:32;2.72;;;1.15;;
10450;SDS011;5273;51.290;6.918;2024-03-23T09:01:58;2.95;;;1.13;;
10450;SDS011;5273;51.290;6.918;2024-03-23T09:04:25;3.30;;;1.10;;
10450;SDS011;5273;51.290;6.918;2024-03-23T09:06:51;2.42;;;0.93;;
10450;SDS011;5273;51.290;6.918;2024-03-23T09:09:19;3.67;;;1.50;;
10450;SDS011;5273;51.290;6.918;2024-03-23T09:11:45;3.83;;;2.00;;
10450;SDS011;5273;51.290;6.918;2024-03-23T09:14:12;5.90;;;1.70;;
10450;SDS011;5273;51.290;6.918;2024-03-23T09:16:39;2.40;;;1.60;;
10450;SDS011;5273;51.290;6.918;2024-03-23T09:19:05;4.57;;;2.00;;
10450;SDS011;5273;51.290;6.918;2024-03-23T09:21:31;8.40;;;2.20;;
10450;SDS011;5273;51.290;6.918;2024-03-23T09:23:58;4.63;;;1.90;;
10450;SDS011;5273;51.290;6.918;2024-03-23T09:26:24;4.07;;;1.90;;
10450;SDS011;5273;51.290;6.918;2024-03-23T09:28:51;8.10;;;2.37;;
10450;SDS011;5273;51.290;6.918;2024-03-23T09:31:16;7.03;;;2.00;;
10450;SDS011;5273;51.290;6.918;2024-03-23T09:33:45;7.80;;;2.13;;
10450;SDS011;5273;51.290;6.918;2024-03-23T09:36:10;5.82;;;2.55;;
10450;SDS011;5273;51.290;6.918;2024-03-23T09:38:37;6.40;;;1.88;;
10450;SDS011;5273;51.290;6.918;2024-03-23T09:41:06;6.28;;;2.20;;
10450;SDS011;5273;51.290;6.918;2024-03-23T09:43:34;4.00;;;1.70;;
10450;SDS011;5273;51.290;6.918;2024-03-23T09:46:01;6.97;;;2.10;;
10450;SDS011;5273;51.290;6.918;2024-03-23T09:48:28;4.55;;;2.25;;
10450;SDS011;5273;51.290;6.918;2024-03-23T09:50:56;7.72;;;2.25;;
10450;SDS011;5273;51.290;6.918;2024-03-23T09:53:23;6.22;;;2.20;;
10450;SDS011;5273;51.290;6.918;2024-03-23T09:55:48;5.97;;;1.92;;
10450;SDS011;5273;51.290;6.918;2024-03-23T09:58:16;6.38;;;2.67;;
10450;SDS011;5273;51.290;6.918;2024-03-23T10:00:42;6.13;;;2.58;;
10450;SDS011;5273;51.290;6.918;2024-03-23T10:03:09;4.90;;;2.70;;
10450;SDS011;5273;51.290;6.918;2024-03-23T10:05:36;4.07;;;2.10;;
10450;SDS011;5273;51.290;6.918;2024-03-23T10:08:16;4.55;;;2.00;;
10450;SDS011;5273;51.290;6.918;2024-03-23T10:10:43;6.53;;;2.58;;
10450;SDS011;5273;51.290;6.918;2024-03-23T10:13:10;4.75;;;2.08;;
10450;SDS011;5273;51.290;6.918;2024-03-23T10:15:40;5.60;;;2.38;;
10450;SDS011;5273;51.290;6.918;2024-03-23T10:18:16;5.45;;;2.10;;
10450;SDS011;5273;51.290;6.918;2024-03-23T10:20:43;3.83;;;2.00;;
10450;SDS011;5273;51.290;6.918;2024-03-23T10:23:16;4.85;;;2.38;;
10450;SDS011;5273;51.290;6.918;2024-03-23T10:25:43;4.60;;;2.05;;
10450;SDS011;5273;51.290;6.918;2024-03-23T10:28:10;5.82;;;1.92;;
10450;SDS011;5273;51.290;6.918;2024-03-23T10:30:37;4.78;;;2.20;;
10450;SDS011;5273;51.290;6.918;2024-03-23T10:33:07;5.25;;;2.10;;
10450;SDS011;5273;51.290;6.918;2024-03-23T10:35:34;5.97;;;1.85;;
10450;SDS011;5273;51.290;6.918;2024-03-23T10:38:02;4.93;;;1.88;;
10450;SDS011;5273;51.290;6.918;2024-03-23T10:40:32;4.47;;;1.60;;
10450;SDS011;5273;51.290;6.918;2024-03-23T10:42:59;2.05;;;1.48;;
10450;SDS011;5273;51.290;6.918;2024-03-23T10:45:29;3.60;;;1.33;;
10450;SDS011;5273;51.290;6.918;2024-03-23T10:47:54;4.68;;;1.75;;
10450;SDS011;5273;51.290;6.918;2024-03-23T10:50:21;1.92;;;1.20;;
10450;SDS011;5273;51.290;6.918;2024-03-23T10:52:48;2.63;;;1.27;;
10450;SDS011;5273;51.290;6.918;2024-03-23T10:55:15;2.58;;;1.08;;
10450;SDS011;5273;51.290;6.918;2024-03-23T10:57:48;2.88;;;1.10;;
10450;SDS011;5273;51.290;6.918;2024-03-23T11:00:16;3.23;;;1.30;;
10450;SDS011;5273;51.290;6.918;2024-03-23T11:02:44;0.90;;;0.90;;
10450;SDS011;5273;51.290;6.918;2024-03-23T11:05:27;0.77;;;0.77;;
10450;SDS011;5273;51.290;6.918;2024-03-23T11:07:55;2.87;;;1.30;;
10450;SDS011;5273;51.290;6.918;2024-03-23T11:10:24;2.50;;;1.07;;
10450;SDS011;5273;51.290;6.918;2024-03-23T11:12:53;2.23;;;1.07;;
10450;SDS011;5273;51.290;6.918;2024-03-23T11:15:19;2.23;;;0.80;;
10450;SDS011;5273;51.290;6.918;2024-03-23T11:20:30;1.52;;;0.63;;
10450;SDS011;5273;51.290;6.918;2024-03-23T11:22:59;1.60;;;0.80;;
10450;SDS011;5273;51.290;6.918;2024-03-23T11:25:25;2.10;;;0.80;;
10450;SDS011;5273;51.290;6.918;2024-03-23T11:27:54;1.30;;;0.80;;
10450;SDS011;5273;51.290;6.918;2024-03-23T11:30:22;5.93;;;1.50;;
10450;SDS011;5273;51.290;6.918;2024-03-23T11:32:50;5.97;;;0.57;;
10450;SDS011;5273;51.290;6.918;2024-03-23T11:35:26;1.23;;;0.70;;
10450;SDS011;5273;51.290;6.918;2024-03-23T11:38:03;1.02;;;0.80;;
10450;SDS011;5273;51.290;6.918;2024-03-23T11:40:30;1.35;;;0.93;;
10450;SDS011;5273;51.290;6.918;2024-03-23T11:42:59;1.45;;;1.00;;
10450;SDS011;5273;51.290;6.918;2024-03-23T11:45:26;0.93;;;0.70;;
10450;SDS011;5273;51.290;6.918;2024-03-23T11:48:04;2.17;;;1.30;;
10450;SDS011;5273;51.290;6.918;2024-03-23T11:50:31;2.45;;;1.30;;
10450;SDS011;5273;51.290;6.918;2024-03-23T11:53:12;3.55;;;1.52;;
10450;SDS011;5273;51.290;6.918;2024-03-23T11:55:40;1.85;;;1.30;;
10450;SDS011;5273;51.290;6.918;2024-03-23T11:58:09;5.35;;;1.70;;
10450;SDS011;5273;51.290;6.918;2024-03-23T12:00:35;4.47;;;1.42;;
10450;SDS011;5273;51.290;6.918;2024-03-23T12:03:03;2.63;;;1.02;;
10450;SDS011;5273;51.290;6.918;2024-03-23T12:05:29;3.20;;;1.10;;
10450;SDS011;5273;51.290;6.918;2024-03-23T12:10:44;1.30;;;0.77;;
10450;SDS011;5273;51.290;6.918;2024-03-23T12:13:15;3.70;;;0.70;;
10450;SDS011;5273;51.290;6.918;2024-03-23T12:15:42;4.20;;;1.07;;
10450;SDS011;5273;51.290;6.918;2024-03-23T12:18:10;0.80;;;0.80;;
10450;SDS011;5273;51.290;6.918;2024-03-23T12:20:36;3.10;;;0.90;;
10450;SDS011;5273;51.290;6.918;2024-03-23T12:23:07;1.40;;;0.67;;
10450;SDS011;5273;51.290;6.918;2024-03-23T12:25:36;1.67;;;0.77;;
10450;SDS011;5273;51.290;6.918;2024-03-23T12:28:02;2.17;;;0.97;;
10450;SDS011;5273;51.290;6.918;2024-03-23T12:30:32;1.67;;;0.77;;
10450;SDS011;5273;51.290;6.918;2024-03-23T12:33:04;1.20;;;0.73;;
10450;SDS011;5273;51.290;6.918;2024-03-23T12:35:31;1.93;;;0.80;;
10450;SDS011;5273;51.290;6.918;2024-03-23T12:37:57;1.03;;;0.83;;
10450;SDS011;5273;51.290;6.918;2024-03-23T12:40:23;1.97;;;1.07;;
10450;SDS011;5273;51.290;6.918;2024-03-23T12:42:49;2.30;;;0.90;;
10450;SDS011;5273;51.290;6.918;2024-03-23T12:45:16;1.23;;;1.13;;
10450;SDS011;5273;51.290;6.918;2024-03-23T12:47:43;2.47;;;1.20;;
10450;SDS011;5273;51.290;6.918;2024-03-23T12:50:10;2.58;;;1.40;;
10450;SDS011;5273;51.290;6.918;2024-03-23T12:52:36;7.60;;;1.73;;
10450;SDS011;5273;51.290;6.918;2024-03-23T12:55:03;2.47;;;1.25;;
10450;SDS011;5273;51.290;6.918;2024-03-23T12:57:30;2.70;;;1.35;;
10450;SDS011;5273;51.290;6.918;2024-03-23T12:59:58;3.72;;;1.48;;
10450;SDS011;5273;51.290;6.918;2024-03-23T13:02:24;1.98;;;1.30;;
10450;SDS011;5273;51.290;6.918;2024-03-23T13:04:52;4.65;;;1.42;;
10450;SDS011;5273;51.290;6.918;2024-03-23T13:07:19;3.78;;;1.02;;
10450;SDS011;5273;51.290;6.918;2024-03-23T13:09:47;3.72;;;1.30;;
10450;SDS011;5273;51.290;6.918;2024-03-23T13:12:15;1.92;;;0.93;;
10450;SDS011;5273;51.290;6.918;2024-03-23T13:14:42;2.72;;;1.35;;
10450;SDS011;5273;51.290;6.918;2024-03-23T13:17:08;2.03;;;1.05;;
10450;SDS011;5273;51.290;6.918;2024-03-23T13:19:34;1.98;;;1.25;;
10450;SDS011;5273;51.290;6.918;2024-03-23T13:22:02;4.30;;;1.67;;
10450;SDS011;5273;51.290;6.918;2024-03-23T13:24:28;5.10;;;1.42;;
10450;SDS011;5273;51.290;6.918;2024-03-23T13:26:55;2.70;;;1.33;;
10450;SDS011;5273;51.290;6.918;2024-03-23T13:29:22;2.83;;;0.95;;
10450;SDS011;5273;51.290;6.918;2024-03-23T13:31:49;2.60;;;0.82;;
10450;SDS011;5273;51.290;6.918;2024-03-23T13:34:17;2.63;;;0.85;;
10450;SDS011;5273;51.290;6.918;2024-03-23T13:36:43;3.83;;;1.07;;
10450;SDS011;5273;51.290;6.918;2024-03-23T13:39:12;2.37;;;0.90;;
10450;SDS011;5273;51.290;6.918;2024-03-23T13:41:38;2.80;;;0.80;;
10450;SDS011;5273;51.290;6.918;2024-03-23T13:44:06;1.17;;;0.73;;
10450;SDS011;5273;51.290;6.918;2024-03-23T13:46:32;5.00;;;0.97;;
10450;SDS011;5273;51.290;6.918;2024-03-23T13:48:59;3.53;;;1.07;;
10450;SDS011;5273;51.290;6.918;2024-03-23T13:51:25;3.53;;;1.53;;
10450;SDS011;5273;51.290;6.918;2024-03-23T13:53:53;2.35;;;0.80;;
10450;SDS011;5273;51.290;6.918;2024-03-23T13:56:20;2.35;;;1.10;;
10450;SDS011;5273;51.290;6.918;2024-03-23T13:58:47;4.88;;;1.13;;
10450;SDS011;5273;51.290;6.918;2024-03-23T14:01:14;1.90;;;1.10;;
10450;SDS011;5273;51.290;6.918;2024-03-23T14:03:41;2.55;;;1.00;;
10450;SDS011;5273;51.290;6.918;2024-03-23T14:06:07;2.30;;;0.90;;
10450;SDS011;5273;51.290;6.918;2024-03-23T14:08:34;2.70;;;1.10;;
10450;SDS011;5273;51.290;6.918;2024-03-23T14:11:01;3.30;;;1.00;;
10450;SDS011;5273;51.290;6.918;2024-03-23T14:13:31;4.10;;;1.13;;
10450;SDS011;5273;51.290;6.918;2024-03-23T14:15:57;0.90;;;0.67;;
10450;SDS011;5273;51.290;6.918;2024-03-23T14:18:25;3.30;;;1.20;;
10450;SDS011;5273;51.290;6.918;2024-03-23T14:20:51;1.87;;;1.20;;
10450;SDS011;5273;51.290;6.918;2024-03-23T14:23:18;2.60;;;1.17;;
10450;SDS011;5273;51.290;6.918;2024-03-23T14:25:44;2.77;;;1.20;;
10450;SDS011;5273;51.290;6.918;2024-03-23T14:28:11;5.13;;;1.48;;
10450;SDS011;5273;51.290;6.918;2024-03-23T14:30:41;2.10;;;1.63;;
10450;SDS011;5273;51.290;6.918;2024-03-23T14:33:08;2.57;;;1.10;;
10450;SDS011;5273;51.290;6.918;2024-03-23T14:35:34;1.93;;;1.23;;
10450;SDS011;5273;51.290;6.918;2024-03-23T14:38:01;2.83;;;1.20;;
10450;SDS011;5273;51.290;6.918;2024-03-23T14:40:27;4.20;;;1.40;;
10450;SDS011;5273;51.290;6.918;2024-03-23T14:42:54;4.07;;;1.57;;
10450;SDS011;5273;51.290;6.918;2024-03-23T14:45:20;3.47;;;1.50;;
10450;SDS011;5273;51.290;6.918;2024-03-23T14:47:50;3.83;;;1.23;;
10450;SDS011;5273;51.290;6.918;2024-03-23T14:50:16;4.13;;;1.37;;
10450;SDS011;5273;51.290;6.918;2024-03-23T14:52:43;1.23;;;1.13;;
10450;SDS011;5273;51.290;6.918;2024-03-23T14:55:10;1.03;;;0.93;;
10450;SDS011;5273;51.290;6.918;2024-03-23T14:57:37;0.97;;;0.87;;
10450;SDS011;5273;51.290;6.918;2024-03-23T15:00:04;2.10;;;1.07;;
10450;SDS011;5273;51.290;6.918;2024-03-23T15:02:33;2.10;;;0.73;;
10450;SDS011;5273;51.290;6.918;2024-03-23T15:05:00;3.13;;;1.23;;
10450;SDS011;5273;51.290;6.918;2024-03-23T15:07:29;3.07;;;0.83;;
10450;SDS011;5273;51.290;6.918;2024-03-23T15:09:55;3.80;;;1.30;;
10450;SDS011;5273;51.290;6.918;2024-03-23T15:12:22;2.27;;;0.90;;
10450;SDS011;5273;51.290;6.918;2024-03-23T15:14:47;2.97;;;1.17;;
10450;SDS011;5273;51.290;6.918;2024-03-23T15:17:14;2.70;;;1.10;;
10450;SDS011;5273;51.290;6.918;2024-03-23T15:19:40;2.13;;;1.23;;
10450;SDS011;5273;51.290;6.918;2024-03-23T15:22:09;1.10;;;1.00;;
10450;SDS011;5273;51.290;6.918;2024-03-23T15:24:35;3.37;;;1.13;;
10450;SDS011;5273;51.290;6.918;2024-03-23T15:27:02;4.10;;;1.20;;
10450;SDS011;5273;51.290;6.918;2024-03-23T15:29:28;1.93;;;1.17;;
10450;SDS011;5273;51.290;6.918;2024-03-23T15:31:55;2.33;;;1.03;;
10450;SDS011;5273;51.290;6.918;2024-03-23T15:34:21;2.90;;;1.33;;
10450;SDS011;5273;51.290;6.918;2024-03-23T15:36:48;2.27;;;1.37;;
10450;SDS011;5273;51.290;6.918;2024-03-23T15:39:16;1.47;;;0.90;;
10450;SDS011;5273;51.290;6.918;2024-03-23T15:41:44;3.47;;;1.27;;
10450;SDS011;5273;51.290;6.918;2024-03-23T15:44:10;3.63;;;1.40;;
10450;SDS011;5273;51.290;6.918;2024-03-23T15:46:37;4.17;;;1.43;;
10450;SDS011;5273;51.290;6.918;2024-03-23T15:49:02;3.00;;;1.03;;
10450;SDS011;5273;51.290;6.918;2024-03-23T15:51:29;1.43;;;1.17;;
10450;SDS011;5273;51.290;6.918;2024-03-23T15:53:57;2.80;;;1.23;;
10450;SDS011;5273;51.290;6.918;2024-03-23T15:56:26;4.50;;;1.13;;